createdAt,value
2022-11-21T00:01:38.938Z,96.51
2022-11-21T00:06:43.024Z,97.06
2022-11-21T00:11:48.388Z,99.97
2022-11-21T00:16:57.165Z,100.00
2022-11-21T00:22:01.521Z,100.00
2022-11-21T00:27:06.921Z,100.00
2022-11-21T00:32:10.951Z,100.00
2022-11-21T00:37:14.984Z,100.00
2022-11-21T00:42:23.360Z,100.00
2022-11-21T00:47:27.356Z,94.32
2022-11-21T00:52:31.462Z,94.30
2022-11-21T00:57:37.000Z,97.20
2022-11-21T01:02:41.007Z,99.33
2022-11-21T01:07:45.046Z,98.01
2022-11-21T01:12:50.405Z,98.27
2022-11-21T01:17:54.388Z,97.21
2022-11-21T01:22:58.475Z,98.33
2022-11-21T01:28:03.939Z,99.63
2022-11-21T01:33:08.207Z,97.75
2022-11-21T01:38:12.167Z,96.40
2022-11-21T01:43:18.419Z,97.56
2022-11-21T01:48:28.195Z,98.07
2022-11-21T01:53:32.265Z,100.00
2022-11-21T01:58:40.352Z,99.11
2022-11-21T02:03:48.754Z,98.01
2022-11-21T02:08:52.946Z,96.48
2022-11-21T02:13:58.473Z,91.28
2022-11-21T02:19:02.680Z,94.66
2022-11-21T02:24:15.412Z,93.81
2022-11-21T02:29:21.371Z,96.07
2022-11-21T02:34:25.507Z,95.97
2022-11-21T02:39:35.355Z,96.23
2022-11-21T02:44:48.190Z,93.83
2022-11-21T02:49:59.144Z,93.09
2022-11-21T02:55:03.115Z,94.98
2022-11-21T03:00:10.114Z,96.68
2022-11-21T03:05:17.820Z,96.36
2022-11-21T03:10:21.991Z,94.83
2022-11-21T03:15:27.520Z,96.89
2022-11-21T03:20:32.516Z,96.82
2022-11-21T03:25:36.508Z,96.65
2022-11-21T03:30:42.097Z,95.60
2022-11-21T03:35:46.104Z,95.79
2022-11-21T03:40:50.050Z,96.84
2022-11-21T03:45:55.401Z,97.48
2022-11-21T03:50:59.379Z,97.80
2022-11-21T03:56:03.308Z,95.04
2022-11-21T04:01:09.284Z,96.65
2022-11-21T04:06:14.961Z,96.11
2022-11-21T04:11:22.000Z,95.15
2022-11-21T04:16:27.399Z,94.63
2022-11-21T04:21:31.586Z,92.53
2022-11-21T04:26:35.548Z,92.39
2022-11-21T04:31:40.949Z,94.26
2022-11-21T04:36:44.956Z,93.74
2022-11-21T04:41:48.942Z,95.54
2022-11-21T04:46:54.434Z,94.69
2022-11-21T04:51:58.433Z,93.53
2022-11-21T04:57:05.593Z,93.02
2022-11-21T05:02:11.328Z,92.97
2022-11-21T05:07:15.808Z,94.56
2022-11-21T05:12:37.278Z,95.81
2022-11-21T05:17:43.175Z,96.80
2022-11-21T05:22:50.136Z,94.21
2022-11-21T05:27:58.054Z,96.09
2022-11-21T05:33:03.563Z,94.26
2022-11-21T05:38:07.556Z,96.18
2022-11-21T05:43:30.479Z,95.77
2022-11-21T05:48:37.067Z,96.84
2022-11-21T05:53:41.045Z,93.56
2022-11-21T05:58:45.377Z,96.07
2022-11-21T06:03:50.972Z,94.46
2022-11-21T06:08:54.947Z,93.85
2022-11-21T06:13:58.902Z,94.26
2022-11-21T06:19:04.437Z,94.47
2022-11-21T06:24:12.295Z,93.66
2022-11-21T06:29:16.903Z,92.58
2022-11-21T06:34:22.266Z,91.59
2022-11-21T06:39:26.339Z,88.07
2022-11-21T06:44:30.583Z,83.11
2022-11-21T06:49:36.358Z,77.44
2022-11-21T06:54:40.342Z,76.48
2022-11-21T06:59:44.944Z,82.04
2022-11-21T07:04:50.386Z,78.26
2022-11-21T07:09:54.496Z,75.30
2022-11-21T07:14:58.676Z,74.51
2022-11-21T07:20:04.214Z,77.14
2022-11-21T07:25:08.636Z,79.63
2022-11-21T07:30:13.460Z,75.90
2022-11-21T07:35:18.973Z,73.45
2022-11-21T07:40:23.441Z,71.30
2022-11-21T07:45:27.420Z,68.64
2022-11-21T07:50:33.253Z,64.16
2022-11-21T07:55:40.555Z,66.12
2022-11-21T08:00:45.287Z,67.25
2022-11-21T08:05:50.791Z,70.32
2022-11-21T08:10:54.847Z,74.27
2022-11-21T08:15:58.945Z,78.89
2022-11-21T08:21:05.930Z,83.80
2022-11-21T08:26:11.486Z,86.96
2022-11-21T08:31:17.217Z,85.69
2022-11-21T08:36:22.644Z,86.82
2022-11-21T08:41:44.317Z,87.90
2022-11-21T08:46:49.567Z,88.10
2022-11-21T08:51:55.545Z,84.73
2022-11-21T08:57:01.997Z,84.75
2022-11-21T09:02:06.452Z,86.23
2022-11-21T09:07:12.128Z,85.73
2022-11-21T09:12:17.662Z,86.70
2022-11-21T09:17:39.219Z,85.80
2022-11-21T09:22:44.636Z,84.56
2022-11-21T09:27:48.573Z,84.08
2022-11-21T09:32:52.982Z,84.77
2022-11-21T09:37:58.624Z,85.58
2022-11-21T09:43:15.004Z,87.22
2022-11-21T09:48:22.831Z,85.65
2022-11-21T09:53:33.601Z,82.62
2022-11-21T09:58:41.606Z,82.88
2022-11-21T10:03:48.601Z,81.75
2022-11-21T10:09:05.326Z,79.49
2022-11-21T10:14:23.792Z,80.58
2022-11-21T10:19:48.947Z,78.99
2022-11-21T10:24:58.154Z,78.90
2022-11-21T10:30:05.848Z,79.38
2022-11-21T10:35:16.955Z,78.42
2022-11-21T10:40:37.446Z,77.47
2022-11-21T10:45:41.659Z,76.71
2022-11-21T10:50:58.885Z,76.34
2022-11-21T10:56:07.747Z,75.88
2022-11-21T11:01:28.279Z,75.23
2022-11-21T11:06:32.390Z,74.18
2022-11-21T11:11:38.439Z,74.94
2022-11-21T11:16:46.223Z,74.42
2022-11-21T11:21:50.864Z,74.77
2022-11-21T11:27:01.255Z,73.00
2022-11-21T11:32:21.265Z,72.85
2022-11-21T11:37:39.888Z,73.24
2022-11-21T11:43:17.399Z,72.31
2022-11-21T11:48:23.799Z,73.90
2022-11-21T11:53:33.325Z,73.49
2022-11-21T11:58:46.053Z,73.66
2022-11-21T12:03:58.317Z,74.49
2022-11-21T12:09:10.166Z,74.92
2022-11-21T12:14:42.530Z,74.93
2022-11-21T12:19:48.138Z,75.94
2022-11-21T12:24:52.342Z,73.81
2022-11-21T12:30:22.065Z,73.39
2022-11-21T12:35:48.612Z,73.08
2022-11-21T12:41:22.986Z,71.60
2022-11-21T12:46:40.893Z,71.59
2022-11-21T12:52:32.173Z,69.95
2022-11-21T12:57:51.601Z,71.64
2022-11-21T13:03:18.700Z,71.89
2022-11-21T13:08:25.928Z,71.90
2022-11-21T13:13:36.350Z,72.50
2022-11-21T13:18:46.309Z,71.50
2022-11-21T13:23:50.408Z,71.93
2022-11-21T13:29:09.864Z,71.87
2022-11-21T13:34:38.882Z,72.33
2022-11-21T13:39:43.869Z,71.93
2022-11-21T13:44:48.813Z,69.80
2022-11-21T13:50:01.710Z,69.84
2022-11-21T13:55:38.820Z,69.10
2022-11-21T14:01:10.146Z,70.89
2022-11-21T14:06:33.308Z,71.18
2022-11-21T14:11:44.113Z,73.02
2022-11-21T14:16:56.499Z,74.72
2022-11-21T14:22:03.203Z,73.76
2022-11-21T14:27:13.161Z,71.84
2022-11-21T14:32:17.442Z,72.06
2022-11-21T14:37:23.529Z,73.26
2022-11-21T14:42:36.738Z,72.25
2022-11-21T14:47:48.553Z,71.74
2022-11-21T14:52:57.918Z,71.68
2022-11-21T14:58:05.200Z,72.79
2022-11-21T15:03:21.195Z,72.23
2022-11-21T15:14:14.830Z,71.30
2022-11-21T15:19:23.288Z,71.23
2022-11-21T15:24:37.969Z,72.19
2022-11-21T15:29:42.051Z,72.33
2022-11-21T15:34:47.319Z,72.87
2022-11-21T15:39:54.847Z,71.63
2022-11-21T15:45:00.402Z,71.09
2022-11-21T15:50:05.658Z,71.83
2022-11-21T15:55:19.190Z,72.61
2022-11-21T16:00:23.326Z,73.03
2022-11-21T16:05:27.575Z,72.47
2022-11-21T16:10:34.039Z,73.53
2022-11-21T16:15:38.111Z,72.59
2022-11-21T16:20:42.737Z,73.88
2022-11-21T16:25:58.351Z,74.67
2022-11-21T16:31:05.595Z,74.70
2022-11-21T16:36:10.246Z,75.09
2022-11-21T16:41:18.633Z,75.88
2022-11-21T16:46:25.210Z,75.70
2022-11-21T16:51:30.241Z,75.84
2022-11-21T16:56:36.229Z,74.56
2022-11-21T17:01:42.563Z,74.83
2022-11-21T17:06:49.061Z,75.05
2022-11-21T17:11:58.590Z,75.25
2022-11-21T17:17:03.259Z,74.83
2022-11-21T17:22:08.271Z,74.83
2022-11-21T17:27:14.091Z,75.70
2022-11-21T17:32:19.271Z,76.06
2022-11-21T17:37:23.635Z,76.05
2022-11-21T17:42:29.079Z,78.47
2022-11-21T17:47:34.628Z,78.38
2022-11-21T17:52:39.015Z,78.70
2022-11-21T17:57:45.104Z,78.24
2022-11-21T18:02:50.011Z,78.59
2022-11-21T18:07:55.043Z,77.51
2022-11-21T18:13:00.477Z,75.86
2022-11-21T18:18:06.842Z,75.77
2022-11-21T18:23:10.977Z,79.08
2022-11-21T18:28:16.504Z,80.28
2022-11-21T18:33:20.754Z,80.38
2022-11-21T18:38:47.667Z,82.30
2022-11-21T18:43:54.841Z,83.89
2022-11-21T18:49:04.563Z,84.58
2022-11-21T18:54:13.319Z,84.47
2022-11-21T18:59:19.949Z,84.47
2022-11-21T19:04:25.021Z,82.78
2022-11-21T19:09:32.766Z,82.08
2022-11-21T19:14:40.918Z,81.66
2022-11-21T19:19:45.864Z,81.64
2022-11-21T19:24:50.338Z,82.04
2022-11-21T19:29:56.063Z,81.78
2022-11-21T19:35:01.195Z,81.97
2022-11-21T19:40:07.098Z,83.77
2022-11-21T19:45:14.034Z,83.76
2022-11-21T19:50:18.220Z,83.31
2022-11-21T19:55:22.244Z,83.61
2022-11-21T20:00:28.681Z,85.84
2022-11-21T20:05:32.686Z,84.11
2022-11-21T20:10:36.950Z,84.84
2022-11-21T20:15:47.016Z,85.52
2022-11-21T20:20:51.027Z,86.76
2022-11-21T20:25:55.008Z,87.04
2022-11-21T20:31:06.519Z,85.57
2022-11-21T20:36:15.435Z,87.36
2022-11-21T20:41:19.960Z,87.73
2022-11-21T20:46:26.069Z,86.98
2022-11-21T20:56:55.050Z,86.73
2022-11-21T21:02:00.597Z,84.41
2022-11-21T21:07:05.031Z,87.48
2022-11-21T21:12:10.236Z,87.29
2022-11-21T21:17:16.622Z,86.91
2022-11-21T21:22:23.136Z,88.11
2022-11-21T21:27:27.265Z,86.76
2022-11-21T21:32:34.650Z,86.17
2022-11-21T21:37:38.966Z,85.66
2022-11-21T21:42:43.160Z,86.92
2022-11-21T21:47:48.661Z,86.23
2022-11-21T21:52:52.765Z,86.52
2022-11-21T21:57:57.289Z,87.01
2022-11-21T22:03:03.556Z,85.37
2022-11-21T22:08:07.543Z,85.06
2022-11-21T22:13:11.546Z,84.50
2022-11-21T22:18:17.313Z,85.28
2022-11-21T22:23:23.632Z,86.44
2022-11-21T22:28:29.750Z,86.18
2022-11-21T22:33:35.252Z,86.00
2022-11-21T22:38:39.727Z,86.72
2022-11-21T22:43:44.897Z,87.33
2022-11-21T22:48:50.634Z,86.78
2022-11-21T22:53:54.986Z,86.49
2022-11-21T22:58:58.985Z,86.22
2022-11-21T23:04:06.036Z,85.16
2022-11-21T23:09:10.015Z,85.93
2022-11-21T23:14:13.937Z,86.40
2022-11-21T23:19:19.325Z,86.99
2022-11-21T23:24:23.486Z,87.21
2022-11-21T23:29:27.818Z,87.04
2022-11-21T23:34:33.908Z,87.80
2022-11-21T23:39:37.887Z,87.12
2022-11-21T23:44:41.804Z,85.89
2022-11-21T23:49:50.097Z,84.90
2022-11-21T23:54:55.974Z,83.98
2022-11-21T23:59:59.994Z,83.85
